Time;durP1;ratioP1;P1;durP2;ratioP2;P2;SDS_P1;SDS_P2;PMS_P1;PMS_P2;Temp;Humidity;BMP_temperature;BMP_pressure;BME280_temperature;BME280_humidity;BME280_pressure;Samples;Min_cycle;Max_cycle;Signal;HPM_P1;HPM_P2
2023/06/20 00:00:39;;;;;;;21.40;8.93;;;;;;;22.40;67.97;100278.00;5093797;28;20472;-67
2023/06/20 00:03:05;;;;;;;20.13;8.57;;;;;;;22.37;67.94;100283.91;5105897;28;20042;-67
2023/06/20 00:05:30;;;;;;;19.77;9.38;;;;;;;22.35;67.88;100286.03;5094945;28;20024;-67
2023/06/20 00:07:56;;;;;;;14.68;9.45;;;;;;;22.26;68.09;100277.19;5091907;28;20024;-67
2023/06/20 00:10:21;;;;;;;13.45;8.70;;;;;;;22.15;68.58;100266.88;5096010;28;20032;-67
2023/06/20 00:12:47;;;;;;;14.57;9.23;;;;;;;22.23;68.91;100287.69;5093770;28;20035;-67
2023/06/20 00:15:12;;;;;;;11.25;8.40;;;;;;;22.15;68.83;100275.06;5099735;28;20121;-67
2023/06/20 00:17:38;;;;;;;10.68;8.77;;;;;;;22.18;68.99;100287.47;5107245;28;20035;-67
2023/06/20 00:20:08;;;;;;;9.98;8.32;;;;;;;22.13;69.29;100282.66;5107355;28;20114;-67
2023/06/20 00:22:34;;;;;;;12.20;8.80;;;;;;;22.09;69.52;100283.28;5106469;28;20172;-66
2023/06/20 00:25:04;;;;;;;10.88;7.70;;;;;;;22.05;69.73;100282.00;5097471;28;20020;-67
2023/06/20 00:27:29;;;;;;;10.82;8.70;;;;;;;22.03;69.89;100282.22;5098146;28;20035;-67
2023/06/20 00:29:55;;;;;;;12.15;8.57;;;;;;;21.98;70.07;100284.75;5104018;28;20035;-67
2023/06/20 00:32:20;;;;;;;14.60;9.15;;;;;;;21.93;70.46;100272.78;5094587;28;20171;-67
2023/06/20 00:34:46;;;;;;;12.10;8.95;;;;;;;21.82;70.82;100262.44;5096628;28;20049;-67
2023/06/20 00:37:11;;;;;;;10.95;8.95;;;;;;;21.86;70.92;100271.94;5092636;28;20046;-67
2023/06/20 00:39:37;;;;;;;13.55;9.07;;;;;;;21.82;71.41;100268.75;5100502;28;20031;-67
2023/06/20 00:42:04;;;;;;;13.52;8.98;;;;;;;21.81;71.63;100275.28;5094287;28;20028;-67
2023/06/20 00:44:29;;;;;;;14.52;9.40;;;;;;;21.79;71.51;100281.97;5100390;28;20027;-67
2023/06/20 00:46:54;;;;;;;14.32;8.70;;;;;;;21.73;71.99;100270.00;5107369;28;20626;-67
2023/06/20 00:49:20;;;;;;;11.45;8.57;;;;;;;21.67;72.31;100276.25;5102021;28;20043;-67
2023/06/20 00:51:46;;;;;;;10.63;8.82;;;;;;;21.64;72.41;100267.66;5104786;28;20032;-67
2023/06/20 00:54:11;;;;;;;9.82;8.10;;;;;;;21.60;72.49;100271.84;5099220;28;20059;-66
2023/06/20 00:56:37;;;;;;;15.15;9.50;;;;;;;21.62;72.47;100283.38;5091951;28;20102;-67
2023/06/20 00:59:05;;;;;;;11.63;9.23;;;;;;;21.50;72.88;100264.03;5094871;28;20639;-67
2023/06/20 01:01:31;;;;;;;10.63;8.68;;;;;;;21.49;72.59;100265.09;5100948;28;20110;-67
2023/06/20 01:03:58;;;;;;;10.55;8.73;;;;;;;21.52;73.45;100263.84;5095291;28;20042;-67
2023/06/20 01:06:41;;;;;;;11.95;9.27;;;;;;;21.48;73.51;100265.31;5095382;28;20068;-67
2023/06/20 01:09:22;;;;;;;12.15;9.60;;;;;;;21.36;73.65;100254.16;5089004;28;20843;-67
2023/06/20 01:12:12;;;;;;;11.23;9.07;;;;;;;21.40;74.15;100273.66;5095261;28;20028;-67
2023/06/20 01:14:51;;;;;;;10.52;9.40;;;;;;;21.37;74.30;100271.34;5091776;28;20113;-67
2023/06/20 01:17:22;;;;;;;14.80;9.07;;;;;;;21.35;74.32;100279.72;5095741;28;20436;-67
2023/06/20 01:19:56;;;;;;;12.63;9.13;;;;;;;21.32;74.77;100280.16;5093951;28;20152;-67
2023/06/20 01:22:33;;;;;;;10.50;9.20;;;;;;;21.28;74.92;100284.31;5090546;28;20124;-67
2023/06/20 01:25:04;;;;;;;13.45;8.88;;;;;;;21.23;75.13;100277.81;5099574;28;20577;-67
2023/06/20 01:27:36;;;;;;;10.77;9.68;;;;;;;21.19;74.92;100271.94;5100992;28;20058;-67
2023/06/20 01:30:08;;;;;;;15.02;9.25;;;;;;;21.09;74.85;100259.72;5090594;28;20067;-67
2023/06/20 01:32:42;;;;;;;11.15;9.38;;;;;;;21.13;75.03;100278.19;5100799;28;20031;-67
2023/06/20 01:35:11;;;;;;;10.30;9.25;;;;;;;21.13;75.34;100282.81;5102726;28;20110;-67
2023/06/20 01:37:41;;;;;;;14.57;9.48;;;;;;;21.01;75.66;100263.44;5103751;28;20505;-67
2023/06/20 01:40:09;;;;;;;12.90;9.73;;;;;;;21.07;75.87;100281.75;5093612;28;20015;-67
2023/06/20 01:42:37;;;;;;;12.57;9.68;;;;;;;20.95;76.00;100263.41;5088197;28;20119;-66
2023/06/20 01:45:05;;;;;;;13.90;10.25;;;;;;;20.99;76.11;100286.53;5095944;28;20036;-67
2023/06/20 01:47:35;;;;;;;18.60;11.07;;;;;;;20.90;76.01;100265.88;5090073;28;20035;-67
2023/06/20 01:50:01;;;;;;;12.13;10.02;;;;;;;20.93;76.08;100288.13;5092511;28;20720;-66
2023/06/20 01:52:29;;;;;;;14.63;10.10;;;;;;;20.94;76.38;100294.44;5092009;28;20030;-67
2023/06/20 01:54:57;;;;;;;11.25;9.98;;;;;;;20.90;76.36;100284.97;5090832;28;20077;-67
2023/06/20 01:57:24;;;;;;;15.50;10.43;;;;;;;20.83;76.36;100278.66;5090768;28;20031;-67
2023/06/20 01:59:50;;;;;;;10.77;9.73;;;;;;;20.84;76.33;100283.03;5092850;28;20744;-67
2023/06/20 02:02:17;;;;;;;11.88;10.20;;;;;;;20.79;76.19;100275.47;5092208;28;20056;-67
2023/06/20 02:04:45;;;;;;;12.63;10.18;;;;;;;20.82;76.30;100285.13;5091407;28;20040;-67
2023/06/20 02:07:12;;;;;;;11.50;9.05;;;;;;;20.80;76.52;100285.31;5091165;28;20348;-67
2023/06/20 02:09:42;;;;;;;12.48;9.55;;;;;;;20.70;76.21;100264.94;5094498;28;20035;-67
2023/06/20 02:12:09;;;;;;;11.55;9.63;;;;;;;20.78;76.41;100279.25;5092857;28;20413;-67
2023/06/20 02:14:36;;;;;;;13.05;10.00;;;;;;;20.56;76.34;100241.34;5096293;28;20032;-67
2023/06/20 02:17:03;;;;;;;11.07;9.93;;;;;;;20.74;76.53;100277.13;5088068;28;20527;-67
2023/06/20 02:19:29;;;;;;;11.45;10.27;;;;;;;20.71;76.84;100277.53;5090838;28;20039;-67
2023/06/20 02:21:56;;;;;;;11.85;10.65;;;;;;;20.68;77.05;100270.59;5093798;28;20060;-67
2023/06/20 02:24:25;;;;;;;11.50;10.10;;;;;;;20.65;77.19;100267.41;5095041;28;20787;-66
2023/06/20 02:26:52;;;;;;;11.65;10.23;;;;;;;20.61;77.67;100274.31;5094204;28;20028;-67
2023/06/20 02:29:19;;;;;;;11.50;10.07;;;;;;;20.59;78.00;100279.09;5096596;28;20058;-66
2023/06/20 02:31:48;;;;;;;24.70;11.57;;;;;;;20.56;78.02;100291.25;5100302;28;20649;-66
2023/06/20 02:34:18;;;;;;;14.05;10.48;;;;;;;20.47;78.08;100278.81;5094827;28;20530;-66
2023/06/20 02:36:46;;;;;;;21.98;11.48;;;;;;;20.50;78.21;100283.88;5104092;28;20455;-66
2023/06/20 02:39:11;;;;;;;21.25;10.15;;;;;;;20.46;78.49;100282.59;5101144;28;20039;-66
2023/06/20 02:41:41;;;;;;;16.63;11.38;;;;;;;20.47;78.65;100287.00;5102600;28;20020;-67
2023/06/20 02:44:06;;;;;;;21.30;11.75;;;;;;;20.44;78.58;100284.66;5094712;28;20467;-67
2023/06/20 02:46:59;;;;;;;19.98;11.23;;;;;;;20.40;78.64;100275.22;5097682;28;20032;-67
2023/06/20 02:49:50;;;;;;;14.90;11.02;;;;;;;20.37;78.93;100291.13;5096445;28;20032;-66
2023/06/20 02:52:34;;;;;;;14.13;10.85;;;;;;;20.34;79.31;100278.72;5098794;28;20081;-67
2023/06/20 02:55:09;;;;;;;17.00;11.00;;;;;;;20.32;79.31;100279.97;5088314;28;20467;-67
2023/06/20 02:57:39;;;;;;;13.93;10.55;;;;;;;20.30;79.38;100282.91;5102429;28;20123;-66
2023/06/20 03:00:09;;;;;;;15.38;10.77;;;;;;;20.28;79.55;100284.13;5105703;28;20040;-67
2023/06/20 03:02:46;;;;;;;13.35;10.55;;;;;;;20.17;79.96;100258.28;5094400;28;20828;-66
2023/06/20 03:05:14;;;;;;;12.52;11.13;;;;;;;20.23;80.01;100278.44;5100251;28;20460;-66
2023/06/20 03:07:41;;;;;;;12.55;10.60;;;;;;;20.24;80.13;100285.59;5099198;28;20110;-67
2023/06/20 03:10:07;;;;;;;14.60;11.27;;;;;;;20.17;80.05;100278.19;5093099;28;20031;-67
2023/06/20 03:12:33;;;;;;;20.20;11.68;;;;;;;20.22;80.39;100283.06;5101068;28;20499;-67
2023/06/20 03:14:58;;;;;;;14.90;11.05;;;;;;;20.20;80.54;100290.56;5099973;28;20019;-67
2023/06/20 03:17:25;;;;;;;17.95;12.20;;;;;;;20.19;80.49;100297.06;5101046;28;20698;-67
2023/06/20 03:19:50;;;;;;;16.20;11.82;;;;;;;20.22;80.50;100304.84;5087615;28;20036;-67
2023/06/20 03:22:16;;;;;;;15.70;11.32;;;;;;;20.23;80.84;100311.97;5103989;28;20097;-66
2023/06/20 03:24:41;;;;;;;18.42;11.57;;;;;;;20.23;80.78;100300.22;5097247;28;20024;-67
2023/06/20 03:27:07;;;;;;;17.63;11.82;;;;;;;20.22;80.75;100301.28;5099946;28;20027;-67
2023/06/20 03:29:32;;;;;;;16.38;12.80;;;;;;;20.12;80.94;100288.00;5093896;28;20027;-66
2023/06/20 03:31:58;;;;;;;17.55;12.13;;;;;;;20.17;81.45;100307.31;5103612;28;20108;-67
2023/06/20 03:34:24;;;;;;;17.40;13.25;;;;;;;20.19;81.82;100306.06;5099430;28;20730;-67
2023/06/20 03:36:49;;;;;;;16.92;11.98;;;;;;;20.23;81.76;100322.00;5095554;28;20028;-67
2023/06/20 03:39:14;;;;;;;16.40;12.88;;;;;;;20.18;81.76;100314.44;5090899;28;20056;-68
2023/06/20 03:41:40;;;;;;;15.65;12.63;;;;;;;20.23;82.16;100322.88;5097473;28;20025;-67
2023/06/20 03:44:05;;;;;;;16.25;12.02;;;;;;;20.23;82.62;100322.00;5109337;28;20394;-67
2023/06/20 03:46:31;;;;;;;16.42;12.65;;;;;;;20.16;82.45;100311.91;5095425;28;20073;-67
2023/06/20 03:48:56;;;;;;;19.35;12.68;;;;;;;20.24;82.69;100327.25;5091646;28;20074;-67
2023/06/20 03:51:21;;;;;;;16.15;12.88;;;;;;;20.26;82.88;100333.38;5092345;28;20031;-67
2023/06/20 03:53:47;;;;;;;17.30;12.90;;;;;;;20.25;82.99;100322.66;5092763;28;20027;-67
2023/06/20 03:56:12;;;;;;;19.65;13.88;;;;;;;20.30;82.83;100334.66;5093180;28;20094;-67
2023/06/20 03:58:39;;;;;;;20.80;13.55;;;;;;;20.32;82.97;100337.19;5096696;28;20027;-67
2023/06/20 04:01:06;;;;;;;17.95;13.77;;;;;;;20.35;83.00;100354.00;5090093;28;20028;-67
2023/06/20 04:03:32;;;;;;;20.30;13.38;;;;;;;20.32;83.00;100335.31;5102815;28;20034;-67
2023/06/20 04:06:01;;;;;;;14.52;12.80;;;;;;;20.42;82.62;100344.00;5092061;28;20040;-67
2023/06/20 04:08:27;;;;;;;15.45;12.75;;;;;;;20.50;82.26;100340.28;5092233;28;20032;-66
2023/06/20 04:10:53;;;;;;;18.65;13.85;;;;;;;20.54;82.38;100349.75;5095889;28;20028;-67
2023/06/20 04:13:18;;;;;;;16.90;13.70;;;;;;;20.62;82.29;100352.31;5091905;28;20040;-67
2023/06/20 04:15:44;;;;;;;17.92;13.63;;;;;;;20.67;81.81;100347.13;5091767;28;20047;-67
2023/06/20 04:18:09;;;;;;;24.63;13.75;;;;;;;20.74;81.50;100348.00;5103813;28;20020;-68
2023/06/20 04:20:34;;;;;;;15.60;13.43;;;;;;;20.84;81.04;100348.47;5096047;28;20080;-66
2023/06/20 04:23:00;;;;;;;17.50;12.85;;;;;;;20.78;80.67;100327.47;5097708;28;20088;-66
2023/06/20 04:25:25;;;;;;;16.25;12.80;;;;;;;20.96;80.35;100341.47;5093775;28;20028;-66
2023/06/20 04:27:55;;;;;;;16.23;12.00;;;;;;;21.03;79.38;100345.06;5093448;28;20024;-66
2023/06/20 04:30:22;;;;;;;17.50;13.15;;;;;;;21.10;79.29;100340.50;5103362;28;20076;-66
2023/06/20 04:32:47;;;;;;;15.85;12.90;;;;;;;21.14;79.13;100336.31;5103509;28;20103;-66
2023/06/20 04:35:14;;;;;;;15.15;13.20;;;;;;;21.16;78.59;100329.63;5101737;28;20032;-66
2023/06/20 04:37:40;;;;;;;16.02;12.30;;;;;;;21.28;78.41;100340.81;5093884;28;20114;-67
2023/06/20 04:40:07;;;;;;;13.73;12.40;;;;;;;21.29;77.97;100326.09;5097713;28;20107;-66
2023/06/20 04:42:33;;;;;;;15.95;13.50;;;;;;;21.36;77.77;100335.16;5098137;28;20031;-66
2023/06/20 04:44:58;;;;;;;16.92;13.23;;;;;;;21.46;77.19;100332.88;5093411;28;20532;-66
2023/06/20 04:47:23;;;;;;;17.25;12.73;;;;;;;21.48;77.25;100330.81;5099446;28;20088;-66
2023/06/20 04:49:49;;;;;;;13.73;12.32;;;;;;;21.59;76.89;100343.84;5101736;28;20020;-66
2023/06/20 04:52:14;;;;;;;16.80;12.50;;;;;;;21.66;76.23;100336.53;5097411;28;20044;-66
2023/06/20 04:54:40;;;;;;;14.55;11.60;;;;;;;21.67;76.20;100335.50;5094757;28;20704;-66
2023/06/20 04:57:05;;;;;;;14.07;11.40;;;;;;;21.87;75.79;100358.25;5090175;28;20028;-66
2023/06/20 04:59:31;;;;;;;14.55;11.90;;;;;;;21.97;74.80;100365.03;5107309;28;20031;-66
2023/06/20 05:01:56;;;;;;;21.25;13.13;;;;;;;22.07;74.56;100364.59;5105456;28;20486;-67
2023/06/20 05:04:22;;;;;;;17.73;12.93;;;;;;;22.17;73.93;100365.03;5103077;28;20035;-66
2023/06/20 05:06:47;;;;;;;15.32;12.32;;;;;;;22.26;73.28;100369.25;5094546;28;20039;-66
2023/06/20 05:09:13;;;;;;;18.67;11.95;;;;;;;22.28;72.78;100357.06;5095566;28;20032;-66
2023/06/20 05:11:39;;;;;;;12.98;11.25;;;;;;;22.41;72.74;100372.66;5096594;28;20156;-66
2023/06/20 05:14:04;;;;;;;15.65;11.68;;;;;;;22.48;72.60;100369.91;5097526;28;20043;-66
2023/06/20 05:16:30;;;;;;;13.20;11.80;;;;;;;22.53;72.21;100370.16;5093814;28;20016;-66
2023/06/20 05:18:55;;;;;;;18.58;12.45;;;;;;;22.59;71.91;100366.56;5090217;28;20394;-66
2023/06/20 05:21:20;;;;;;;20.27;12.10;;;;;;;22.63;71.47;100368.66;5099604;28;20078;-66
2023/06/20 05:23:46;;;;;;;15.38;11.23;;;;;;;22.66;71.01;100370.97;5100390;28;20020;-67
2023/06/20 05:26:12;;;;;;;16.75;10.95;;;;;;;22.68;70.61;100363.41;5101621;28;20074;-67
2023/06/20 05:28:37;;;;;;;15.80;11.43;;;;;;;22.68;69.77;100363.41;5100020;28;20088;-67
2023/06/20 05:31:03;;;;;;;13.35;11.07;;;;;;;22.77;69.62;100364.03;5092957;28;20036;-67
2023/06/20 05:33:28;;;;;;;14.93;11.00;;;;;;;22.83;69.39;100377.69;5086454;28;20407;-67
2023/06/20 05:35:54;;;;;;;12.90;11.23;;;;;;;22.83;69.32;100374.94;5095849;28;20088;-66
2023/06/20 05:38:20;;;;;;;11.65;10.45;;;;;;;22.89;69.07;100381.50;5089998;28;20024;-67
2023/06/20 05:40:46;;;;;;;12.75;10.43;;;;;;;22.86;69.10;100360.03;5107355;28;20031;-67
2023/06/20 05:43:11;;;;;;;11.70;10.50;;;;;;;22.96;69.14;100388.63;5095447;28;20470;-67
2023/06/20 05:45:37;;;;;;;13.38;10.98;;;;;;;23.03;68.98;100399.56;5101281;28;20050;-67
2023/06/20 05:48:03;;;;;;;13.63;10.75;;;;;;;23.07;68.37;100390.72;5107597;28;20039;-67
2023/06/20 05:50:30;;;;;;;12.48;10.40;;;;;;;23.13;68.34;100386.28;5107184;28;20444;-67
2023/06/20 05:52:56;;;;;;;11.52;10.43;;;;;;;23.13;67.57;100384.41;5106887;28;20058;-66
2023/06/20 05:55:21;;;;;;;10.90;9.73;;;;;;;23.23;67.24;100397.66;5103204;28;20475;-67
2023/06/20 05:57:47;;;;;;;11.02;9.70;;;;;;;23.26;66.37;100389.88;5095283;28;20027;-66
2023/06/20 06:00:13;;;;;;;12.95;10.55;;;;;;;23.32;66.67;100397.22;5107227;28;20391;-67
2023/06/20 06:02:45;;;;;;;11.07;9.75;;;;;;;23.39;66.16;100398.03;5106581;28;20459;-66
2023/06/20 06:05:10;;;;;;;12.40;9.50;;;;;;;23.36;66.01;100382.03;5101287;28;20050;-67
2023/06/20 06:07:37;;;;;;;17.10;9.88;;;;;;;23.55;65.82;100393.97;5106987;28;20035;-67
2023/06/20 06:10:04;;;;;;;11.40;10.07;;;;;;;23.61;65.45;100410.41;5106626;28;20032;-67
2023/06/20 06:12:30;;;;;;;10.93;9.75;;;;;;;23.72;65.75;100411.59;5104320;28;20038;-67
2023/06/20 06:14:55;;;;;;;10.88;9.05;;;;;;;23.80;65.16;100412.19;5095916;28;20027;-67
2023/06/20 06:17:21;;;;;;;9.23;8.40;;;;;;;23.90;64.34;100426.25;5101708;28;20054;-67
2023/06/20 06:19:46;;;;;;;9.95;9.00;;;;;;;23.92;63.78;100407.72;5087065;28;20020;-67
2023/06/20 06:22:12;;;;;;;11.95;8.68;;;;;;;24.04;63.41;100411.47;5086126;28;20079;-67
2023/06/20 06:24:37;;;;;;;9.90;8.88;;;;;;;24.10;62.69;100409.75;5099656;28;20031;-67
2023/06/20 06:27:03;;;;;;;11.43;8.43;;;;;;;24.20;62.70;100404.63;5090131;28;20027;-67
2023/06/20 06:29:29;;;;;;;9.40;8.50;;;;;;;24.32;62.64;100411.91;5086436;28;20139;-67
2023/06/20 06:31:55;;;;;;;10.88;8.77;;;;;;;24.42;62.28;100398.59;5086412;28;20559;-67
2023/06/20 06:34:21;;;;;;;8.75;7.78;;;;;;;24.64;62.14;100404.56;5098361;28;20043;-66
2023/06/20 06:36:49;;;;;;;11.15;8.52;;;;;;;24.78;61.23;100410.75;5100907;28;20034;-67
2023/06/20 06:39:17;;;;;;;8.98;7.88;;;;;;;24.96;60.64;100410.81;5102320;28;20039;-67
2023/06/20 06:41:48;;;;;;;9.10;7.57;;;;;;;25.06;59.79;100401.03;5106834;28;20031;-67
2023/06/20 06:44:14;;;;;;;9.90;8.82;;;;;;;25.13;59.04;100399.03;5106457;28;20027;-67
2023/06/20 06:46:39;;;;;;;10.18;8.75;;;;;;;25.28;58.70;100405.00;5098414;28;20028;-67
2023/06/20 06:49:05;;;;;;;9.50;8.52;;;;;;;25.40;58.37;100403.22;5091052;28;20034;-67
2023/06/20 06:51:30;;;;;;;11.65;8.48;;;;;;;25.51;57.94;100405.22;5091494;28;20568;-67
2023/06/20 06:53:56;;;;;;;8.80;7.97;;;;;;;25.63;57.56;100400.59;5084213;28;20031;-67
2023/06/20 06:56:21;;;;;;;8.27;7.47;;;;;;;25.74;57.26;100399.00;5096138;28;20019;-68
2023/06/20 06:58:47;;;;;;;8.77;7.72;;;;;;;25.91;56.82;100394.53;5091455;28;20112;-67
2023/06/20 07:01:12;;;;;;;8.60;7.63;;;;;;;26.12;56.71;100405.06;5090799;28;20023;-66
2023/06/20 07:03:37;;;;;;;9.55;7.65;;;;;;;26.25;56.03;100396.63;5087893;28;20024;-67
2023/06/20 07:06:03;;;;;;;9.52;7.65;;;;;;;26.20;55.24;100378.09;5096547;28;20032;-67
2023/06/20 07:08:29;;;;;;;7.95;6.97;;;;;;;26.47;54.79;100400.50;5098370;28;20031;-67
2023/06/20 07:10:54;;;;;;;10.93;7.47;;;;;;;26.62;54.29;100406.44;5098152;28;20444;-67
2023/06/20 07:13:23;;;;;;;9.35;6.97;;;;;;;26.73;53.83;100400.13;5105017;28;20110;-67
2023/06/20 07:15:49;;;;;;;12.30;8.30;;;;;;;26.82;53.89;100387.66;5089658;28;20028;-67
2023/06/20 07:18:14;;;;;;;7.95;7.15;;;;;;;27.00;53.79;100406.00;5092464;28;20382;-67
2023/06/20 07:20:39;;;;;;;10.63;7.57;;;;;;;27.08;53.87;100392.72;5094037;28;20020;-68
2023/06/20 07:23:05;;;;;;;8.52;7.63;;;;;;;27.21;52.78;100400.72;5104900;28;20047;-68
2023/06/20 07:25:30;;;;;;;8.70;7.25;;;;;;;27.34;52.70;100402.44;5087568;28;20109;-67
2023/06/20 07:27:57;;;;;;;7.07;6.38;;;;;;;27.35;52.31;100380.16;5094572;28;20437;-67
2023/06/20 07:30:22;;;;;;;7.65;6.60;;;;;;;27.63;52.01;100410.53;5107715;28;20036;-67
2023/06/20 07:32:48;;;;;;;14.07;7.72;;;;;;;27.73;51.84;100407.97;5107081;28;20027;-68
2023/06/20 07:35:14;;;;;;;10.07;6.30;;;;;;;27.73;51.59;100394.19;5096858;28;20039;-67
2023/06/20 07:37:40;;;;;;;10.88;7.25;;;;;;;27.89;51.52;100410.00;5104788;28;20028;-67
2023/06/20 07:40:07;;;;;;;7.85;7.07;;;;;;;28.01;51.07;100415.47;5102182;28;20027;-67
2023/06/20 07:42:33;;;;;;;8.38;7.57;;;;;;;28.04;50.92;100418.59;5104943;28;20383;-67
2023/06/20 07:44:58;;;;;;;7.65;6.53;;;;;;;28.12;50.51;100414.63;5108754;28;20022;-67
2023/06/20 07:47:24;;;;;;;9.68;7.03;;;;;;;28.10;50.31;100402.97;5101373;28;20673;-67
2023/06/20 07:49:49;;;;;;;9.93;7.05;;;;;;;28.30;50.22;100417.16;5091565;28;20020;-67
2023/06/20 07:52:15;;;;;;;9.73;6.57;;;;;;;28.35;48.97;100414.50;5094874;28;20234;-67
2023/06/20 07:54:40;;;;;;;10.25;7.32;;;;;;;28.38;49.17;100414.81;5093992;28;20020;-67
2023/06/20 07:57:06;;;;;;;8.75;7.13;;;;;;;28.35;48.85;100392.41;5098036;28;20031;-68
2023/06/20 07:59:32;;;;;;;8.23;6.70;;;;;;;28.47;48.82;100405.09;5094872;28;20047;-68
2023/06/20 08:01:57;;;;;;;7.75;6.82;;;;;;;28.54;49.07;100413.22;5091974;28;20035;-68
2023/06/20 08:04:22;;;;;;;10.70;7.20;;;;;;;28.65;48.90;100412.31;5093624;28;20024;-67
2023/06/20 08:06:48;;;;;;;7.53;6.70;;;;;;;28.69;48.46;100424.50;5083442;28;20027;-68
2023/06/20 08:09:13;;;;;;;8.32;7.07;;;;;;;28.78;48.34;100422.19;5095247;28;20020;-67
2023/06/20 08:11:39;;;;;;;9.55;6.78;;;;;;;28.83;47.66;100422.28;5089521;28;20026;-68
2023/06/20 08:14:04;;;;;;;10.95;6.32;;;;;;;28.79;47.61;100402.59;5106059;28;20106;-68
2023/06/20 08:16:30;;;;;;;8.80;6.85;;;;;;;29.04;47.98;100421.53;5107208;28;20019;-68
2023/06/20 08:18:55;;;;;;;7.50;6.50;;;;;;;29.10;47.57;100424.13;5106272;28;20107;-67
2023/06/20 08:21:20;;;;;;;8.73;6.20;;;;;;;29.26;47.42;100426.03;5089942;28;20047;-67
2023/06/20 08:23:46;;;;;;;8.55;6.40;;;;;;;29.27;46.69;100430.47;5088341;28;20051;-67
2023/06/20 08:26:12;;;;;;;7.93;6.15;;;;;;;29.32;46.28;100432.47;5102955;28;20036;-67
2023/06/20 08:28:38;;;;;;;7.13;6.43;;;;;;;29.42;46.23;100438.16;5105602;28;20032;-67
2023/06/20 08:31:04;;;;;;;7.00;5.90;;;;;;;29.47;45.97;100435.47;5108331;28;20030;-67
2023/06/20 08:33:29;;;;;;;7.72;6.18;;;;;;;29.33;45.83;100409.28;5109045;28;20028;-67
2023/06/20 08:35:56;;;;;;;11.63;6.70;;;;;;;29.56;45.75;100436.72;5099589;27;20039;-67
2023/06/20 08:38:21;;;;;;;8.50;5.82;;;;;;;29.50;44.88;100435.78;5088992;28;20047;-67
2023/06/20 08:40:47;;;;;;;7.53;6.35;;;;;;;29.53;44.51;100440.00;5093154;28;20134;-67
2023/06/20 08:43:16;;;;;;;7.75;6.57;;;;;;;29.51;43.88;100443.00;5096513;28;20027;-67
2023/06/20 08:45:42;;;;;;;11.43;6.68;;;;;;;29.42;44.08;100422.41;5094121;28;20024;-68
2023/06/20 08:48:09;;;;;;;6.70;6.00;;;;;;;29.48;44.59;100429.69;5097087;28;20042;-67
2023/06/20 08:50:36;;;;;;;7.40;6.57;;;;;;;29.58;44.50;100440.03;5089616;28;20036;-68
2023/06/20 08:53:05;;;;;;;8.57;6.80;;;;;;;29.56;44.55;100440.31;5087973;28;20036;-68
2023/06/20 08:55:31;;;;;;;7.10;6.40;;;;;;;29.56;44.22;100432.00;5089660;28;20008;-68
2023/06/20 08:57:57;;;;;;;8.25;6.90;;;;;;;29.63;43.80;100432.69;5093562;28;20024;-67
2023/06/20 09:00:23;;;;;;;9.10;6.47;;;;;;;29.65;43.91;100436.03;5097321;28;20034;-67
2023/06/20 09:02:52;;;;;;;9.80;6.30;;;;;;;29.70;43.25;100429.75;5103266;28;20058;-67
2023/06/20 09:05:18;;;;;;;7.70;6.80;;;;;;;29.70;43.31;100424.22;5098914;28;20479;-67
2023/06/20 09:07:44;;;;;;;6.80;6.07;;;;;;;29.80;42.84;100435.41;5087852;28;20035;-67
2023/06/20 09:10:18;;;;;;;9.30;6.50;;;;;;;29.80;42.41;100427.97;5101191;28;20031;-67
2023/06/20 09:12:49;;;;;;;7.10;6.40;;;;;;;29.91;41.50;100443.56;5102729;28;20027;-67
2023/06/20 09:15:17;;;;;;;9.73;6.40;;;;;;;29.87;41.23;100439.66;5090638;28;20019;-67
2023/06/20 09:17:43;;;;;;;7.07;6.38;;;;;;;29.89;41.26;100444.94;5089106;28;20028;-67
2023/06/20 09:20:14;;;;;;;7.22;6.53;;;;;;;29.85;41.05;100435.44;5100585;28;20050;-68
2023/06/20 09:22:40;;;;;;;6.57;5.97;;;;;;;29.82;40.71;100434.03;5095996;28;20824;-68
2023/06/20 09:25:07;;;;;;;6.47;5.90;;;;;;;29.81;40.09;100428.78;5087263;28;20028;-68
2023/06/20 09:27:37;;;;;;;6.43;5.85;;;;;;;29.78;40.30;100419.06;5101680;28;20034;-67
2023/06/20 09:30:04;;;;;;;8.40;6.22;;;;;;;29.76;40.18;100417.66;5092994;28;20070;-68
2023/06/20 09:32:40;;;;;;;6.95;6.35;;;;;;;29.85;40.05;100424.38;5087632;28;20426;-68
2023/06/20 09:35:08;;;;;;;6.85;6.15;;;;;;;29.83;39.63;100412.78;5098126;28;20463;-68
2023/06/20 09:37:44;;;;;;;7.32;6.55;;;;;;;29.89;39.92;100417.28;5089784;28;20032;-68
2023/06/20 09:40:17;;;;;;;6.75;6.13;;;;;;;29.89;40.44;100415.31;5101747;28;20027;-67
2023/06/20 09:42:44;;;;;;;10.38;6.28;;;;;;;29.91;40.24;100412.28;5092971;28;20024;-68
2023/06/20 09:45:11;;;;;;;7.22;5.95;;;;;;;29.96;39.56;100404.06;5092160;28;20063;-68
2023/06/20 09:47:39;;;;;;;9.68;5.93;;;;;;;30.03;39.80;100413.00;5101354;28;20371;-67
2023/06/20 09:50:19;;;;;;;7.45;6.40;;;;;;;30.00;39.74;100399.69;5086841;28;20069;-68
2023/06/20 09:53:13;;;;;;;6.82;6.13;;;;;;;30.05;39.35;100405.28;5090331;28;20079;-67
2023/06/20 09:55:40;;;;;;;6.65;6.05;;;;;;;30.08;39.98;100396.47;5095061;28;20008;-68
2023/06/20 09:58:07;;;;;;;7.13;6.38;;;;;;;30.15;39.89;100389.63;5087010;28;20032;-68
2023/06/20 10:00:33;;;;;;;7.20;6.50;;;;;;;30.40;39.60;100408.44;5090358;28;20108;-68
2023/06/20 10:03:00;;;;;;;8.75;6.78;;;;;;;30.49;39.27;100391.13;5103307;28;20066;-68
2023/06/20 10:05:27;;;;;;;7.68;6.65;;;;;;;30.61;38.77;100396.47;5087831;28;20375;-68
2023/06/20 10:07:57;;;;;;;6.97;6.07;;;;;;;30.71;38.49;100392.94;5090920;28;20169;-68
2023/06/20 10:10:23;;;;;;;7.18;6.57;;;;;;;30.77;38.78;100403.00;5093625;28;20027;-68
2023/06/20 10:12:49;;;;;;;8.23;6.95;;;;;;;30.74;38.67;100404.38;5093548;28;20023;-68
2023/06/20 10:15:16;;;;;;;7.47;6.43;;;;;;;30.73;38.64;100405.50;5096177;28;20426;-68
2023/06/20 10:17:43;;;;;;;23.23;7.18;;;;;;;30.60;38.75;100389.28;5090005;28;20032;-68
2023/06/20 10:20:24;;;;;;;6.53;5.93;;;;;;;30.71;38.76;100407.66;5094604;28;20506;-68
2023/06/20 10:22:49;;;;;;;7.20;6.28;;;;;;;30.67;38.88;100412.06;5099301;28;20075;-69
2023/06/20 10:25:18;;;;;;;7.03;6.32;;;;;;;30.59;38.85;100398.66;5095271;28;20112;-68
2023/06/20 10:27:55;;;;;;;8.75;7.05;;;;;;;30.63;38.86;100404.53;5094838;28;20048;-68
2023/06/20 10:30:46;;;;;;;7.57;6.22;;;;;;;30.58;39.25;100403.41;5096185;28;20027;-68
2023/06/20 10:33:12;;;;;;;8.02;6.47;;;;;;;30.58;38.70;100400.63;5092537;28;20023;-69
2023/06/20 10:36:01;;;;;;;6.85;6.15;;;;;;;30.69;38.06;100398.75;5099399;28;20050;-69
2023/06/20 10:38:27;;;;;;;10.05;6.30;;;;;;;30.75;36.91;100400.50;5091606;28;20453;-69
2023/06/20 10:41:13;;;;;;;7.00;6.40;;;;;;;30.87;36.97;100415.03;5088243;28;20038;-69
2023/06/20 10:44:01;;;;;;;6.93;6.28;;;;;;;30.86;37.55;100396.75;5093707;28;20020;-68
2023/06/20 10:46:41;;;;;;;6.30;5.70;;;;;;;30.98;37.41;100402.09;5096208;28;20026;-68
2023/06/20 10:49:10;;;;;;;7.88;6.45;;;;;;;30.96;37.69;100394.03;5087777;28;20028;-69
2023/06/20 10:51:49;;;;;;;6.53;5.90;;;;;;;31.10;37.28;100395.25;5097013;28;20123;-68
2023/06/20 10:54:15;;;;;;;6.55;5.95;;;;;;;31.14;37.40;100385.28;5092806;28;20039;-68
2023/06/20 10:56:43;;;;;;;8.00;7.10;;;;;;;31.03;37.56;100374.41;5100166;28;20419;-68
2023/06/20 10:59:12;;;;;;;7.50;6.00;;;;;;;31.10;37.25;100400.78;5101019;28;20023;-68
2023/06/20 11:01:38;;;;;;;7.57;6.18;;;;;;;31.08;37.35;100391.09;5099819;28;20023;-68
2023/06/20 11:04:08;;;;;;;6.95;6.25;;;;;;;31.08;36.92;100386.34;5086585;28;20027;-68
2023/06/20 11:06:33;;;;;;;7.10;6.13;;;;;;;31.10;36.95;100386.09;5089004;28;20032;-69
2023/06/20 11:09:00;;;;;;;8.73;6.07;;;;;;;31.01;37.11;100385.75;5089925;28;20505;-68
2023/06/20 11:11:38;;;;;;;7.38;6.05;;;;;;;31.01;37.06;100391.28;5103390;28;20042;-68
2023/06/20 11:14:09;;;;;;;9.82;6.03;;;;;;;31.04;36.72;100390.75;5097546;28;20054;-68
2023/06/20 11:16:35;;;;;;;6.63;5.72;;;;;;;31.10;36.21;100377.78;5102885;28;20023;-69
2023/06/20 11:19:00;;;;;;;6.55;5.85;;;;;;;31.21;36.19;100380.34;5094696;28;20036;-69